KFGX

Details ICAO KFGX
Name FLEMING MASON
Region United States
Timezone America/New_York (UTC-5.0)
Plans Departing 1
Arriving 0
Stats Elevation 913 ft / 278 m (AMSL)
Location 38.541817° -83.743375°
Runways 1
Magnetic Variation 6.322° W
Sunrise 2017-12-16 12:47:34 UTC / 2017-12-16 07:47:34 Local
Sunset 2017-12-16 22:16:38 UTC / 2017-12-16 17:16:38 Local
Advertisement - Login to hide

Runways

ID Width Length Bearing (true) Bearing (mag) Surface Threshold Offset Overrun Length
07 75 ft / 23 m 4,993 ft / 1,522 m 67.11° 73.43° Asphalt 299 ft / 91 m 0 ft / 0 m
25 75 ft / 23 m 4,993 ft / 1,522 m 247.12° 253.44° Asphalt 0 ft / 0 m 0 ft / 0 m

Map

Weather


0- 5 10 15 20 25 30 35+ Temperature / ° C

Clouds and Precipitation
Forecast for 2017-12-17 06:00 UTC. Updated an hour ago

Ground ~20,000 ft ~40,000 ft Winds

METAR

KFGX 170235Z AUTO 21007KT 10SM CLR 03/M02 A3018 RMK AO2 T00251020

TAF

Not found

Frequencies

Recorded 118.12 MHz AWOS 3
Unicom 123.00 MHz CTAF/UNICOM
Warning: Do not use this data for real-world aviation or navigation. No guarantee of current accuracy is given.